sensor_id;sensor_type;location;lat;lon;timestamp;P1;durP1;ratioP1;P2;durP2;ratioP2
48268;SDS011;34088;52.232;5.196;2022-12-18T00:32:51;104.85;;;36.85;;
48268;SDS011;34088;52.232;5.196;2022-12-18T00:37:42;99.68;;;36.08;;
48268;SDS011;34088;52.232;5.196;2022-12-18T00:42:34;107.40;;;38.42;;
48268;SDS011;34088;52.232;5.196;2022-12-18T00:45:18;104.75;;;36.97;;
48268;SDS011;34088;52.232;5.196;2022-12-18T00:50:10;104.10;;;38.20;;
48268;SDS011;34088;52.232;5.196;2022-12-18T00:52:36;105.80;;;39.33;;
48268;SDS011;34088;52.232;5.196;2022-12-18T00:55:07;106.70;;;39.20;;
48268;SDS011;34088;52.232;5.196;2022-12-18T00:57:33;105.35;;;38.60;;
48268;SDS011;34088;52.232;5.196;2022-12-18T01:02:24;102.32;;;37.50;;
48268;SDS011;34088;52.232;5.196;2022-12-18T01:04:50;107.28;;;39.40;;
48268;SDS011;34088;52.232;5.196;2022-12-18T01:07:16;98.38;;;37.85;;
48268;SDS011;34088;52.232;5.196;2022-12-18T01:09:42;100.68;;;39.15;;
48268;SDS011;34088;52.232;5.196;2022-12-18T01:14:33;102.28;;;36.38;;
48268;SDS011;34088;52.232;5.196;2022-12-18T01:16:59;103.07;;;37.20;;
48268;SDS011;34088;52.232;5.196;2022-12-18T01:19:27;106.20;;;40.40;;
48268;SDS011;34088;52.232;5.196;2022-12-18T01:24:18;98.68;;;37.28;;
48268;SDS011;34088;52.232;5.196;2022-12-18T01:26:44;102.22;;;38.35;;
48268;SDS011;34088;52.232;5.196;2022-12-18T01:31:36;104.35;;;37.53;;
48268;SDS011;34088;52.232;5.196;2022-12-18T01:34:02;112.35;;;40.08;;
48268;SDS011;34088;52.232;5.196;2022-12-18T01:36:33;112.47;;;39.63;;
48268;SDS011;34088;52.232;5.196;2022-12-18T01:39:03;104.22;;;38.60;;
48268;SDS011;34088;52.232;5.196;2022-12-18T01:41:34;99.13;;;35.03;;
48268;SDS011;34088;52.232;5.196;2022-12-18T01:47:23;105.75;;;38.58;;
48268;SDS011;34088;52.232;5.196;2022-12-18T01:50:16;103.40;;;38.67;;
48268;SDS011;34088;52.232;5.196;2022-12-18T01:52:47;108.63;;;39.80;;
48268;SDS011;34088;52.232;5.196;2022-12-18T01:55:40;107.75;;;39.30;;
48268;SDS011;34088;52.232;5.196;2022-12-18T01:58:13;106.22;;;38.95;;
48268;SDS011;34088;52.232;5.196;2022-12-18T02:00:40;104.88;;;38.03;;
48268;SDS011;34088;52.232;5.196;2022-12-18T02:03:06;109.53;;;38.38;;
48268;SDS011;34088;52.232;5.196;2022-12-18T02:08:14;104.13;;;38.55;;
48268;SDS011;34088;52.232;5.196;2022-12-18T02:13:33;110.38;;;38.92;;
48268;SDS011;34088;52.232;5.196;2022-12-18T02:16:34;108.47;;;39.92;;
48268;SDS011;34088;52.232;5.196;2022-12-18T02:19:26;117.45;;;40.63;;
48268;SDS011;34088;52.232;5.196;2022-12-18T02:22:26;107.32;;;37.97;;
48268;SDS011;34088;52.232;5.196;2022-12-18T02:27:59;113.70;;;41.17;;
48268;SDS011;34088;52.232;5.196;2022-12-18T02:30:28;106.15;;;39.95;;
48268;SDS011;34088;52.232;5.196;2022-12-18T02:32:56;112.03;;;43.65;;
48268;SDS011;34088;52.232;5.196;2022-12-18T02:35:24;104.18;;;38.70;;
48268;SDS011;34088;52.232;5.196;2022-12-18T02:37:54;111.57;;;39.92;;
48268;SDS011;34088;52.232;5.196;2022-12-18T02:40:20;110.60;;;40.35;;
48268;SDS011;34088;52.232;5.196;2022-12-18T02:42:48;114.35;;;40.08;;
48268;SDS011;34088;52.232;5.196;2022-12-18T02:45:14;115.72;;;41.60;;
48268;SDS011;34088;52.232;5.196;2022-12-18T02:58:47;107.75;;;37.55;;
48268;SDS011;34088;52.232;5.196;2022-12-18T03:06:56;107.20;;;40.03;;
48268;SDS011;34088;52.232;5.196;2022-12-18T03:09:30;110.32;;;39.58;;
48268;SDS011;34088;52.232;5.196;2022-12-18T03:12:11;112.63;;;39.70;;
48268;SDS011;34088;52.232;5.196;2022-12-18T03:15:36;107.68;;;38.88;;
48268;SDS011;34088;52.232;5.196;2022-12-18T03:17:59;112.43;;;40.78;;
48268;SDS011;34088;52.232;5.196;2022-12-18T03:20:37;115.68;;;40.85;;
48268;SDS011;34088;52.232;5.196;2022-12-18T03:23:12;108.85;;;39.55;;
48268;SDS011;34088;52.232;5.196;2022-12-18T03:25:44;104.50;;;39.42;;
48268;SDS011;34088;52.232;5.196;2022-12-18T03:28:12;99.68;;;38.72;;
48268;SDS011;34088;52.232;5.196;2022-12-18T03:30:41;94.50;;;38.20;;
48268;SDS011;34088;52.232;5.196;2022-12-18T03:33:19;98.47;;;37.92;;
48268;SDS011;34088;52.232;5.196;2022-12-18T03:35:52;99.88;;;38.05;;
48268;SDS011;34088;52.232;5.196;2022-12-18T03:38:18;99.80;;;38.95;;
48268;SDS011;34088;52.232;5.196;2022-12-18T03:40:46;100.30;;;37.70;;
48268;SDS011;34088;52.232;5.196;2022-12-18T03:43:35;101.45;;;39.58;;
48268;SDS011;34088;52.232;5.196;2022-12-18T03:46:28;98.15;;;38.72;;
48268;SDS011;34088;52.232;5.196;2022-12-18T03:49:09;101.97;;;39.00;;
48268;SDS011;34088;52.232;5.196;2022-12-18T03:51:46;93.65;;;37.83;;
48268;SDS011;34088;52.232;5.196;2022-12-18T03:54:43;97.50;;;39.28;;
48268;SDS011;34088;52.232;5.196;2022-12-18T03:57:15;102.43;;;40.20;;
48268;SDS011;34088;52.232;5.196;2022-12-18T03:59:45;96.82;;;39.90;;
48268;SDS011;34088;52.232;5.196;2022-12-18T04:02:15;95.40;;;39.45;;
48268;SDS011;34088;52.232;5.196;2022-12-18T04:04:41;97.07;;;39.45;;
48268;SDS011;34088;52.232;5.196;2022-12-18T04:07:08;94.45;;;39.28;;
48268;SDS011;34088;52.232;5.196;2022-12-18T04:09:34;95.25;;;40.40;;
48268;SDS011;34088;52.232;5.196;2022-12-18T04:12:01;87.53;;;36.40;;
48268;SDS011;34088;52.232;5.196;2022-12-18T04:14:27;94.85;;;39.13;;
48268;SDS011;34088;52.232;5.196;2022-12-18T04:16:53;92.72;;;38.65;;
48268;SDS011;34088;52.232;5.196;2022-12-18T04:19:18;89.40;;;38.75;;
48268;SDS011;34088;52.232;5.196;2022-12-18T04:21:44;91.47;;;38.30;;
48268;SDS011;34088;52.232;5.196;2022-12-18T04:26:35;89.00;;;35.50;;
48268;SDS011;34088;52.232;5.196;2022-12-18T04:29:01;84.43;;;36.83;;
48268;SDS011;34088;52.232;5.196;2022-12-18T04:31:27;88.97;;;38.35;;
48268;SDS011;34088;52.232;5.196;2022-12-18T04:33:53;84.80;;;35.38;;
48268;SDS011;34088;52.232;5.196;2022-12-18T04:36:19;88.53;;;35.35;;
48268;SDS011;34088;52.232;5.196;2022-12-18T04:38:45;84.00;;;35.85;;
48268;SDS011;34088;52.232;5.196;2022-12-18T04:41:13;86.03;;;36.40;;
48268;SDS011;34088;52.232;5.196;2022-12-18T04:43:39;80.18;;;34.55;;
48268;SDS011;34088;52.232;5.196;2022-12-18T04:46:05;81.35;;;34.20;;
48268;SDS011;34088;52.232;5.196;2022-12-18T04:48:32;82.47;;;33.85;;
48268;SDS011;34088;52.232;5.196;2022-12-18T04:50:59;85.35;;;34.25;;
48268;SDS011;34088;52.232;5.196;2022-12-18T04:53:24;77.60;;;33.50;;
48268;SDS011;34088;52.232;5.196;2022-12-18T04:55:50;77.15;;;33.63;;
48268;SDS011;34088;52.232;5.196;2022-12-18T04:58:26;80.30;;;33.30;;
48268;SDS011;34088;52.232;5.196;2022-12-18T05:00:52;85.03;;;32.45;;
48268;SDS011;34088;52.232;5.196;2022-12-18T05:05:43;76.57;;;31.45;;
48268;SDS011;34088;52.232;5.196;2022-12-18T05:08:09;71.70;;;30.45;;
48268;SDS011;34088;52.232;5.196;2022-12-18T05:10:35;73.90;;;31.25;;
48268;SDS011;34088;52.232;5.196;2022-12-18T05:13:00;75.18;;;31.75;;
48268;SDS011;34088;52.232;5.196;2022-12-18T05:17:54;75.63;;;30.67;;
48268;SDS011;34088;52.232;5.196;2022-12-18T05:20:20;77.13;;;31.48;;
48268;SDS011;34088;52.232;5.196;2022-12-18T05:22:46;78.22;;;32.47;;
48268;SDS011;34088;52.232;5.196;2022-12-18T05:25:12;73.22;;;32.10;;
48268;SDS011;34088;52.232;5.196;2022-12-18T05:27:38;75.25;;;31.98;;
48268;SDS011;34088;52.232;5.196;2022-12-18T05:30:03;77.10;;;31.95;;
48268;SDS011;34088;52.232;5.196;2022-12-18T05:32:30;73.90;;;31.08;;
48268;SDS011;34088;52.232;5.196;2022-12-18T05:34:56;72.10;;;31.67;;
48268;SDS011;34088;52.232;5.196;2022-12-18T05:37:22;67.22;;;29.42;;
48268;SDS011;34088;52.232;5.196;2022-12-18T05:39:48;68.57;;;30.45;;
48268;SDS011;34088;52.232;5.196;2022-12-18T05:42:13;73.75;;;31.90;;
48268;SDS011;34088;52.232;5.196;2022-12-18T05:47:05;68.22;;;29.60;;
48268;SDS011;34088;52.232;5.196;2022-12-18T05:49:31;63.25;;;28.55;;
48268;SDS011;34088;52.232;5.196;2022-12-18T05:51:56;67.25;;;29.80;;
48268;SDS011;34088;52.232;5.196;2022-12-18T05:54:22;72.57;;;29.30;;
48268;SDS011;34088;52.232;5.196;2022-12-18T05:56:48;65.78;;;28.60;;
48268;SDS011;34088;52.232;5.196;2022-12-18T05:59:14;64.07;;;28.60;;
48268;SDS011;34088;52.232;5.196;2022-12-18T06:01:40;62.45;;;27.77;;
48268;SDS011;34088;52.232;5.196;2022-12-18T06:04:05;66.75;;;28.77;;
48268;SDS011;34088;52.232;5.196;2022-12-18T06:06:31;63.95;;;28.40;;
48268;SDS011;34088;52.232;5.196;2022-12-18T06:08:57;62.22;;;27.05;;
48268;SDS011;34088;52.232;5.196;2022-12-18T06:11:23;65.32;;;27.83;;
48268;SDS011;34088;52.232;5.196;2022-12-18T06:13:51;61.83;;;26.73;;
48268;SDS011;34088;52.232;5.196;2022-12-18T06:16:18;55.88;;;26.02;;
48268;SDS011;34088;52.232;5.196;2022-12-18T06:18:44;63.17;;;27.00;;
48268;SDS011;34088;52.232;5.196;2022-12-18T06:21:10;59.30;;;26.52;;
48268;SDS011;34088;52.232;5.196;2022-12-18T06:23:35;52.42;;;24.70;;
48268;SDS011;34088;52.232;5.196;2022-12-18T06:26:05;54.33;;;24.77;;
48268;SDS011;34088;52.232;5.196;2022-12-18T06:28:32;51.08;;;23.83;;
48268;SDS011;34088;52.232;5.196;2022-12-18T06:30:58;53.25;;;24.45;;
48268;SDS011;34088;52.232;5.196;2022-12-18T06:33:25;51.13;;;23.63;;
48268;SDS011;34088;52.232;5.196;2022-12-18T06:35:53;48.42;;;23.70;;
48268;SDS011;34088;52.232;5.196;2022-12-18T06:38:19;55.20;;;25.13;;
48268;SDS011;34088;52.232;5.196;2022-12-18T06:40:45;51.47;;;23.05;;
48268;SDS011;34088;52.232;5.196;2022-12-18T06:43:10;51.90;;;24.08;;
48268;SDS011;34088;52.232;5.196;2022-12-18T06:45:39;51.63;;;24.33;;
48268;SDS011;34088;52.232;5.196;2022-12-18T06:48:05;49.42;;;24.55;;
48268;SDS011;34088;52.232;5.196;2022-12-18T06:50:31;52.35;;;24.20;;
48268;SDS011;34088;52.232;5.196;2022-12-18T06:52:56;48.35;;;23.50;;
48268;SDS011;34088;52.232;5.196;2022-12-18T06:55:22;55.60;;;24.60;;
48268;SDS011;34088;52.232;5.196;2022-12-18T06:57:48;48.45;;;24.08;;
48268;SDS011;34088;52.232;5.196;2022-12-18T07:00:14;47.95;;;23.25;;
48268;SDS011;34088;52.232;5.196;2022-12-18T07:02:39;50.58;;;22.88;;
48268;SDS011;34088;52.232;5.196;2022-12-18T07:05:05;48.05;;;22.83;;
48268;SDS011;34088;52.232;5.196;2022-12-18T07:07:32;50.80;;;23.42;;
48268;SDS011;34088;52.232;5.196;2022-12-18T07:09:59;51.38;;;24.65;;
48268;SDS011;34088;52.232;5.196;2022-12-18T07:12:26;54.15;;;24.75;;
48268;SDS011;34088;52.232;5.196;2022-12-18T07:14:52;47.08;;;23.38;;
48268;SDS011;34088;52.232;5.196;2022-12-18T07:17:18;48.78;;;23.23;;
48268;SDS011;34088;52.232;5.196;2022-12-18T07:19:43;51.58;;;24.90;;
48268;SDS011;34088;52.232;5.196;2022-12-18T07:22:09;52.50;;;25.33;;
48268;SDS011;34088;52.232;5.196;2022-12-18T07:24:35;49.42;;;23.42;;
48268;SDS011;34088;52.232;5.196;2022-12-18T07:27:01;48.00;;;24.65;;
48268;SDS011;34088;52.232;5.196;2022-12-18T07:29:26;47.60;;;24.58;;
48268;SDS011;34088;52.232;5.196;2022-12-18T07:31:52;45.72;;;23.42;;
48268;SDS011;34088;52.232;5.196;2022-12-18T07:34:18;48.30;;;23.55;;
48268;SDS011;34088;52.232;5.196;2022-12-18T07:36:44;46.60;;;23.98;;
48268;SDS011;34088;52.232;5.196;2022-12-18T07:39:13;53.28;;;24.20;;
48268;SDS011;34088;52.232;5.196;2022-12-18T07:41:39;45.70;;;22.95;;
48268;SDS011;34088;52.232;5.196;2022-12-18T07:44:10;46.03;;;24.40;;
48268;SDS011;34088;52.232;5.196;2022-12-18T07:46:37;53.88;;;24.95;;
48268;SDS011;34088;52.232;5.196;2022-12-18T07:49:03;45.05;;;24.05;;
48268;SDS011;34088;52.232;5.196;2022-12-18T07:51:29;44.70;;;23.17;;
48268;SDS011;34088;52.232;5.196;2022-12-18T07:53:54;43.63;;;22.25;;
48268;SDS011;34088;52.232;5.196;2022-12-18T07:56:21;46.58;;;23.63;;
48268;SDS011;34088;52.232;5.196;2022-12-18T07:58:47;48.10;;;23.27;;
48268;SDS011;34088;52.232;5.196;2022-12-18T08:01:12;49.00;;;23.98;;
48268;SDS011;34088;52.232;5.196;2022-12-18T08:03:39;47.70;;;23.42;;
48268;SDS011;34088;52.232;5.196;2022-12-18T08:06:06;42.70;;;23.40;;
48268;SDS011;34088;52.232;5.196;2022-12-18T08:08:35;45.53;;;24.60;;
48268;SDS011;34088;52.232;5.196;2022-12-18T08:11:00;40.90;;;22.25;;
48268;SDS011;34088;52.232;5.196;2022-12-18T08:13:27;48.40;;;22.48;;
48268;SDS011;34088;52.232;5.196;2022-12-18T08:16:00;40.08;;;22.08;;
48268;SDS011;34088;52.232;5.196;2022-12-18T08:18:29;44.97;;;22.77;;
48268;SDS011;34088;52.232;5.196;2022-12-18T08:20:58;43.75;;;22.90;;
48268;SDS011;34088;52.232;5.196;2022-12-18T08:23:40;38.00;;;21.40;;
48268;SDS011;34088;52.232;5.196;2022-12-18T08:26:06;43.17;;;22.30;;
48268;SDS011;34088;52.232;5.196;2022-12-18T08:28:33;40.47;;;21.70;;
48268;SDS011;34088;52.232;5.196;2022-12-18T08:30:59;41.83;;;22.25;;
48268;SDS011;34088;52.232;5.196;2022-12-18T08:33:25;44.35;;;23.55;;
48268;SDS011;34088;52.232;5.196;2022-12-18T08:35:52;38.05;;;22.30;;
48268;SDS011;34088;52.232;5.196;2022-12-18T08:38:18;44.95;;;23.45;;
48268;SDS011;34088;52.232;5.196;2022-12-18T08:40:44;36.92;;;21.02;;
48268;SDS011;34088;52.232;5.196;2022-12-18T08:43:10;46.05;;;23.58;;
48268;SDS011;34088;52.232;5.196;2022-12-18T08:45:54;41.20;;;22.52;;
48268;SDS011;34088;52.232;5.196;2022-12-18T08:48:20;39.10;;;21.83;;
48268;SDS011;34088;52.232;5.196;2022-12-18T08:50:58;42.30;;;23.08;;
48268;SDS011;34088;52.232;5.196;2022-12-18T08:53:24;40.38;;;22.40;;
48268;SDS011;34088;52.232;5.196;2022-12-18T08:55:51;39.53;;;22.20;;
48268;SDS011;34088;52.232;5.196;2022-12-18T08:58:17;43.00;;;23.33;;
48268;SDS011;34088;52.232;5.196;2022-12-18T09:00:43;43.47;;;23.38;;
48268;SDS011;34088;52.232;5.196;2022-12-18T09:05:42;39.45;;;21.17;;
48268;SDS011;34088;52.232;5.196;2022-12-18T09:08:08;41.28;;;21.92;;
48268;SDS011;34088;52.232;5.196;2022-12-18T09:10:34;39.42;;;22.10;;
48268;SDS011;34088;52.232;5.196;2022-12-18T09:13:06;41.80;;;23.60;;
48268;SDS011;34088;52.232;5.196;2022-12-18T09:15:32;43.92;;;24.15;;
48268;SDS011;34088;52.232;5.196;2022-12-18T09:20:23;38.10;;;19.23;;
48268;SDS011;34088;52.232;5.196;2022-12-18T09:22:49;39.72;;;21.92;;
48268;SDS011;34088;52.232;5.196;2022-12-18T09:25:15;38.53;;;20.88;;
48268;SDS011;34088;52.232;5.196;2022-12-18T09:27:41;40.78;;;22.25;;
48268;SDS011;34088;52.232;5.196;2022-12-18T09:32:32;37.67;;;21.75;;
48268;SDS011;34088;52.232;5.196;2022-12-18T09:34:58;38.60;;;21.65;;
48268;SDS011;34088;52.232;5.196;2022-12-18T09:37:24;38.28;;;21.48;;
48268;SDS011;34088;52.232;5.196;2022-12-18T09:39:50;40.45;;;21.52;;
48268;SDS011;34088;52.232;5.196;2022-12-18T09:44:48;40.80;;;20.80;;
48268;SDS011;34088;52.232;5.196;2022-12-18T09:47:27;40.33;;;22.83;;
48268;SDS011;34088;52.232;5.196;2022-12-18T09:50:00;39.95;;;22.73;;
48268;SDS011;34088;52.232;5.196;2022-12-18T09:52:33;37.35;;;21.17;;
48268;SDS011;34088;52.232;5.196;2022-12-18T09:55:45;35.95;;;21.23;;
48268;SDS011;34088;52.232;5.196;2022-12-18T09:58:06;41.05;;;23.15;;
48268;SDS011;34088;52.232;5.196;2022-12-18T10:00:56;40.50;;;22.33;;
48268;SDS011;34088;52.232;5.196;2022-12-18T10:06:32;34.35;;;20.10;;
48268;SDS011;34088;52.232;5.196;2022-12-18T10:08:59;35.00;;;20.25;;
48268;SDS011;34088;52.232;5.196;2022-12-18T10:21:26;37.90;;;22.13;;
48268;SDS011;34088;52.232;5.196;2022-12-18T10:29:31;34.17;;;20.23;;
48268;SDS011;34088;52.232;5.196;2022-12-18T10:34:23;36.42;;;21.33;;
48268;SDS011;34088;52.232;5.196;2022-12-18T10:39:22;36.88;;;20.75;;
48268;SDS011;34088;52.232;5.196;2022-12-18T10:41:51;33.85;;;19.98;;
48268;SDS011;34088;52.232;5.196;2022-12-18T10:46:49;33.63;;;19.63;;
48268;SDS011;34088;52.232;5.196;2022-12-18T10:49:25;33.38;;;19.30;;
48268;SDS011;34088;52.232;5.196;2022-12-18T10:54:57;42.95;;;24.85;;
48268;SDS011;34088;52.232;5.196;2022-12-18T11:02:55;31.27;;;19.40;;
48268;SDS011;34088;52.232;5.196;2022-12-18T11:05:31;33.20;;;19.60;;
48268;SDS011;34088;52.232;5.196;2022-12-18T11:07:59;30.55;;;18.40;;
48268;SDS011;34088;52.232;5.196;2022-12-18T11:10:28;30.90;;;18.40;;
48268;SDS011;34088;52.232;5.196;2022-12-18T11:13:08;32.42;;;18.30;;
48268;SDS011;34088;52.232;5.196;2022-12-18T11:15:46;32.08;;;18.40;;
48268;SDS011;34088;52.232;5.196;2022-12-18T11:18:31;32.38;;;18.23;;
48268;SDS011;34088;52.232;5.196;2022-12-18T11:21:07;30.48;;;18.85;;
48268;SDS011;34088;52.232;5.196;2022-12-18T11:23:35;33.33;;;19.42;;
48268;SDS011;34088;52.232;5.196;2022-12-18T11:26:02;32.28;;;18.65;;
48268;SDS011;34088;52.232;5.196;2022-12-18T11:33:48;28.52;;;17.40;;
48268;SDS011;34088;52.232;5.196;2022-12-18T11:36:43;32.08;;;18.52;;
48268;SDS011;34088;52.232;5.196;2022-12-18T11:39:14;30.98;;;17.63;;
48268;SDS011;34088;52.232;5.196;2022-12-18T11:42:10;31.35;;;17.83;;
48268;SDS011;34088;52.232;5.196;2022-12-18T11:44:48;31.52;;;19.60;;
48268;SDS011;34088;52.232;5.196;2022-12-18T11:49:54;33.42;;;18.70;;
48268;SDS011;34088;52.232;5.196;2022-12-18T11:52:26;32.55;;;18.17;;
48268;SDS011;34088;52.232;5.196;2022-12-18T11:55:04;29.10;;;17.60;;
48268;SDS011;34088;52.232;5.196;2022-12-18T12:00:18;33.10;;;18.73;;
48268;SDS011;34088;52.232;5.196;2022-12-18T12:06:09;32.15;;;18.38;;
48268;SDS011;34088;52.232;5.196;2022-12-18T12:26:08;37.38;;;22.50;;
48268;SDS011;34088;52.232;5.196;2022-12-18T12:31:23;29.65;;;17.20;;
48268;SDS011;34088;52.232;5.196;2022-12-18T12:34:26;30.13;;;17.05;;
48268;SDS011;34088;52.232;5.196;2022-12-18T12:40:22;27.58;;;17.15;;
48268;SDS011;34088;52.232;5.196;2022-12-18T12:42:57;27.70;;;16.67;;
48268;SDS011;34088;52.232;5.196;2022-12-18T12:48:17;29.75;;;16.40;;
48268;SDS011;34088;52.232;5.196;2022-12-18T12:50:50;26.25;;;16.33;;
48268;SDS011;34088;52.232;5.196;2022-12-18T12:53:21;27.83;;;16.27;;
48268;SDS011;34088;52.232;5.196;2022-12-18T12:55:51;28.27;;;16.52;;
48268;SDS011;34088;52.232;5.196;2022-12-18T12:58:36;26.55;;;15.95;;
48268;SDS011;34088;52.232;5.196;2022-12-18T13:06:47;26.30;;;16.40;;
48268;SDS011;34088;52.232;5.196;2022-12-18T13:20:47;28.33;;;17.27;;
48268;SDS011;34088;52.232;5.196;2022-12-18T13:31:10;27.70;;;16.67;;
48268;SDS011;34088;52.232;5.196;2022-12-18T13:33:44;28.73;;;16.77;;
48268;SDS011;34088;52.232;5.196;2022-12-18T13:36:15;29.80;;;17.73;;
48268;SDS011;34088;52.232;5.196;2022-12-18T13:44:31;28.88;;;17.10;;
48268;SDS011;34088;52.232;5.196;2022-12-18T13:46:58;28.00;;;17.65;;
48268;SDS011;34088;52.232;5.196;2022-12-18T13:49:33;29.80;;;16.92;;
48268;SDS011;34088;52.232;5.196;2022-12-18T13:52:03;29.58;;;17.13;;
48268;SDS011;34088;52.232;5.196;2022-12-18T13:54:57;33.80;;;17.30;;
48268;SDS011;34088;52.232;5.196;2022-12-18T13:57:29;30.42;;;17.83;;
48268;SDS011;34088;52.232;5.196;2022-12-18T14:02:46;32.25;;;17.35;;
48268;SDS011;34088;52.232;5.196;2022-12-18T14:08:03;32.22;;;17.25;;
48268;SDS011;34088;52.232;5.196;2022-12-18T14:10:41;29.42;;;17.45;;
48268;SDS011;34088;52.232;5.196;2022-12-18T14:13:15;31.73;;;18.25;;
48268;SDS011;34088;52.232;5.196;2022-12-18T14:16:04;29.08;;;17.67;;
48268;SDS011;34088;52.232;5.196;2022-12-18T14:19:05;31.58;;;17.80;;
48268;SDS011;34088;52.232;5.196;2022-12-18T14:21:28;31.88;;;18.27;;
48268;SDS011;34088;52.232;5.196;2022-12-18T14:26:50;31.55;;;17.98;;
48268;SDS011;34088;52.232;5.196;2022-12-18T14:29:20;26.77;;;16.52;;
48268;SDS011;34088;52.232;5.196;2022-12-18T14:34:45;31.45;;;19.02;;
48268;SDS011;34088;52.232;5.196;2022-12-18T14:37:13;28.90;;;17.13;;
48268;SDS011;34088;52.232;5.196;2022-12-18T14:39:51;31.95;;;18.52;;
48268;SDS011;34088;52.232;5.196;2022-12-18T14:42:26;31.55;;;17.48;;
48268;SDS011;34088;52.232;5.196;2022-12-18T14:45:32;32.15;;;18.88;;
48268;SDS011;34088;52.232;5.196;2022-12-18T14:47:58;30.30;;;17.85;;
48268;SDS011;34088;52.232;5.196;2022-12-18T14:50:24;33.25;;;19.13;;
48268;SDS011;34088;52.232;5.196;2022-12-18T14:52:51;32.88;;;18.95;;
48268;SDS011;34088;52.232;5.196;2022-12-18T14:57:43;28.13;;;17.20;;
48268;SDS011;34088;52.232;5.196;2022-12-18T15:02:48;34.38;;;20.30;;
48268;SDS011;34088;52.232;5.196;2022-12-18T15:05:24;32.65;;;18.55;;
48268;SDS011;34088;52.232;5.196;2022-12-18T15:07:56;30.97;;;17.23;;
48268;SDS011;34088;52.232;5.196;2022-12-18T15:10:24;55.45;;;29.30;;
48268;SDS011;34088;52.232;5.196;2022-12-18T15:20:44;33.75;;;19.65;;
48268;SDS011;34088;52.232;5.196;2022-12-18T15:26:02;32.55;;;19.30;;
48268;SDS011;34088;52.232;5.196;2022-12-18T15:36:11;33.72;;;20.15;;
48268;SDS011;34088;52.232;5.196;2022-12-18T15:38:39;30.33;;;17.08;;
48268;SDS011;34088;52.232;5.196;2022-12-18T15:41:05;32.67;;;18.90;;
48268;SDS011;34088;52.232;5.196;2022-12-18T15:46:06;36.08;;;20.88;;
48268;SDS011;34088;52.232;5.196;2022-12-18T15:48:45;32.53;;;19.63;;
48268;SDS011;34088;52.232;5.196;2022-12-18T15:51:23;33.47;;;19.23;;
48268;SDS011;34088;52.232;5.196;2022-12-18T15:53:54;32.15;;;19.40;;
48268;SDS011;34088;52.232;5.196;2022-12-18T15:56:22;33.67;;;19.50;;
48268;SDS011;34088;52.232;5.196;2022-12-18T15:59:10;32.33;;;20.20;;
48268;SDS011;34088;52.232;5.196;2022-12-18T16:01:42;34.72;;;20.23;;
48268;SDS011;34088;52.232;5.196;2022-12-18T16:04:11;32.90;;;18.42;;
48268;SDS011;34088;52.232;5.196;2022-12-18T16:06:39;34.05;;;20.65;;
48268;SDS011;34088;52.232;5.196;2022-12-18T16:09:05;31.58;;;19.30;;
48268;SDS011;34088;52.232;5.196;2022-12-18T16:11:32;37.40;;;22.83;;
48268;SDS011;34088;52.232;5.196;2022-12-18T16:14:15;34.72;;;20.05;;
48268;SDS011;34088;52.232;5.196;2022-12-18T16:16:45;35.05;;;19.60;;
48268;SDS011;34088;52.232;5.196;2022-12-18T16:19:13;38.60;;;22.65;;
48268;SDS011;34088;52.232;5.196;2022-12-18T16:21:39;36.90;;;20.58;;
48268;SDS011;34088;52.232;5.196;2022-12-18T16:26:41;35.95;;;21.35;;
48268;SDS011;34088;52.232;5.196;2022-12-18T16:29:07;40.45;;;22.38;;
48268;SDS011;34088;52.232;5.196;2022-12-18T16:31:34;42.95;;;24.23;;
48268;SDS011;34088;52.232;5.196;2022-12-18T16:36:38;36.47;;;21.70;;
48268;SDS011;34088;52.232;5.196;2022-12-18T16:41:29;39.33;;;21.77;;
48268;SDS011;34088;52.232;5.196;2022-12-18T16:43:58;35.15;;;20.38;;
48268;SDS011;34088;52.232;5.196;2022-12-18T16:46:24;33.78;;;19.42;;
48268;SDS011;34088;52.232;5.196;2022-12-18T16:51:16;38.45;;;25.27;;
48268;SDS011;34088;52.232;5.196;2022-12-18T16:56:07;34.90;;;19.90;;
48268;SDS011;34088;52.232;5.196;2022-12-18T17:00:59;37.72;;;20.85;;
48268;SDS011;34088;52.232;5.196;2022-12-18T17:05:50;33.95;;;19.10;;
48268;SDS011;34088;52.232;5.196;2022-12-18T17:08:17;36.08;;;19.38;;
48268;SDS011;34088;52.232;5.196;2022-12-18T17:13:08;36.63;;;19.75;;
48268;SDS011;34088;52.232;5.196;2022-12-18T17:18:00;37.10;;;20.13;;
48268;SDS011;34088;52.232;5.196;2022-12-18T17:20:26;57.80;;;33.90;;
48268;SDS011;34088;52.232;5.196;2022-12-18T17:25:18;36.40;;;20.45;;
48268;SDS011;34088;52.232;5.196;2022-12-18T17:30:09;41.97;;;24.85;;
48268;SDS011;34088;52.232;5.196;2022-12-18T17:32:36;62.70;;;28.02;;
48268;SDS011;34088;52.232;5.196;2022-12-18T17:37:27;41.75;;;24.20;;
48268;SDS011;34088;52.232;5.196;2022-12-18T17:42:18;45.03;;;23.20;;
48268;SDS011;34088;52.232;5.196;2022-12-18T17:47:10;44.10;;;22.15;;
48268;SDS011;34088;52.232;5.196;2022-12-18T17:49:37;45.33;;;22.35;;
48268;SDS011;34088;52.232;5.196;2022-12-18T17:54:28;45.78;;;22.98;;
48268;SDS011;34088;52.232;5.196;2022-12-18T17:59:20;39.67;;;21.63;;
48268;SDS011;34088;52.232;5.196;2022-12-18T18:01:46;39.17;;;23.15;;
48268;SDS011;34088;52.232;5.196;2022-12-18T18:04:12;40.17;;;24.88;;
48268;SDS011;34088;52.232;5.196;2022-12-18T18:06:39;36.90;;;21.45;;
48268;SDS011;34088;52.232;5.196;2022-12-18T18:11:31;41.50;;;23.17;;
48268;SDS011;34088;52.232;5.196;2022-12-18T18:14:17;41.72;;;24.13;;
48268;SDS011;34088;52.232;5.196;2022-12-18T18:16:45;48.25;;;26.45;;
48268;SDS011;34088;52.232;5.196;2022-12-18T18:19:17;41.70;;;22.17;;
48268;SDS011;34088;52.232;5.196;2022-12-18T18:21:45;40.58;;;22.65;;
48268;SDS011;34088;52.232;5.196;2022-12-18T18:24:14;46.28;;;22.88;;
48268;SDS011;34088;52.232;5.196;2022-12-18T18:26:42;47.03;;;26.08;;
48268;SDS011;34088;52.232;5.196;2022-12-18T18:29:15;44.83;;;24.33;;
48268;SDS011;34088;52.232;5.196;2022-12-18T18:31:43;40.30;;;23.38;;
48268;SDS011;34088;52.232;5.196;2022-12-18T18:36:45;44.22;;;24.58;;
48268;SDS011;34088;52.232;5.196;2022-12-18T18:41:37;40.00;;;21.47;;
48268;SDS011;34088;52.232;5.196;2022-12-18T18:46:29;42.72;;;22.35;;
48268;SDS011;34088;52.232;5.196;2022-12-18T18:51:20;52.85;;;29.90;;
48268;SDS011;34088;52.232;5.196;2022-12-18T18:53:46;43.40;;;23.70;;
48268;SDS011;34088;52.232;5.196;2022-12-18T18:56:16;39.72;;;23.33;;
48268;SDS011;34088;52.232;5.196;2022-12-18T18:58:44;42.55;;;24.00;;
48268;SDS011;34088;52.232;5.196;2022-12-18T19:03:41;43.70;;;23.67;;
48268;SDS011;34088;52.232;5.196;2022-12-18T19:06:09;40.35;;;23.30;;
48268;SDS011;34088;52.232;5.196;2022-12-18T19:08:41;49.67;;;25.88;;
48268;SDS011;34088;52.232;5.196;2022-12-18T19:13:53;39.92;;;22.05;;
48268;SDS011;34088;52.232;5.196;2022-12-18T19:16:20;42.42;;;23.05;;
48268;SDS011;34088;52.232;5.196;2022-12-18T19:18:47;41.75;;;23.50;;
48268;SDS011;34088;52.232;5.196;2022-12-18T19:23:38;44.90;;;23.77;;
48268;SDS011;34088;52.232;5.196;2022-12-18T19:28:31;48.72;;;26.67;;
48268;SDS011;34088;52.232;5.196;2022-12-18T19:30:58;65.38;;;30.60;;
48268;SDS011;34088;52.232;5.196;2022-12-18T19:33:27;52.97;;;26.67;;
48268;SDS011;34088;52.232;5.196;2022-12-18T19:35:54;54.92;;;26.98;;